Time;durP1;ratioP1;P1;durP2;ratioP2;P2;SDS_P1;SDS_P2;PMS_P1;PMS_P2;Temp;Humidity;BMP_temperature;BMP_pressure;BME280_temperature;BME280_humidity;BME280_pressure;Samples;Min_cycle;Max_cycle;Signal;HPM_P1;HPM_P2
2021/10/22 00:01:14;;;;;;;;;;;23.80;48.40;;;;;;1598479;73;670;-70
2021/10/22 00:03:16;;;;;;;;;;;23.80;48.40;;;;;;1597831;74;1914;-71
2021/10/22 00:05:18;;;;;;;;;;;23.70;48.40;;;;;;1593152;73;821;-71
2021/10/22 00:07:19;;;;;;;;;;;23.80;48.40;;;;;;1598162;73;1132;-70
2021/10/22 00:09:21;;;;;;;;;;;23.90;48.50;;;;;;1598186;73;782;-70
2021/10/22 00:11:23;;;;;;;;;;;23.80;48.50;;;;;;1598562;73;828;-72
2021/10/22 00:13:26;;;;;;;;;;;23.90;48.60;;;;;;1598421;73;802;-70
2021/10/22 00:15:28;;;;;;;;;;;23.80;48.50;;;;;;1597696;73;733;-71
2021/10/22 00:17:30;;;;;;;;;;;23.80;48.60;;;;;;1597336;73;1120;-72
2021/10/22 00:19:32;;;;;;;;;;;23.70;48.50;;;;;;1598519;73;793;-70
2021/10/22 00:21:34;;;;;;;;;;;23.70;48.50;;;;;;1598770;73;808;-71
2021/10/22 00:23:36;;;;;;;;;;;23.90;48.60;;;;;;1598624;73;1930;-71
2021/10/22 00:25:38;;;;;;;;;;;23.70;48.50;;;;;;1598465;73;1148;-71
2021/10/22 00:27:40;;;;;;;;;;;23.80;48.50;;;;;;1598704;73;847;-72
2021/10/22 00:29:42;;;;;;;;;;;23.70;48.50;;;;;;1598087;73;805;-70
2021/10/22 00:31:44;;;;;;;;;;;23.80;48.50;;;;;;1597471;73;754;-70
2021/10/22 00:33:46;;;;;;;;;;;23.90;48.70;;;;;;1597785;73;760;-69
2021/10/22 00:35:48;;;;;;;;;;;23.80;48.50;;;;;;1597592;73;1162;-70
2021/10/22 00:37:50;;;;;;;;;;;23.70;48.60;;;;;;1596473;73;678;-70
2021/10/22 00:39:52;;;;;;;;;;;23.70;48.60;;;;;;1597822;74;668;-72
2021/10/22 00:41:54;;;;;;;;;;;23.70;48.70;;;;;;1612577;73;1921;-71
2021/10/22 00:43:56;;;;;;;;;;;23.90;48.80;;;;;;1607733;73;698;-71
2021/10/22 00:45:58;;;;;;;;;;;23.80;48.70;;;;;;1608771;73;1110;-71
2021/10/22 00:48:00;;;;;;;;;;;23.70;48.60;;;;;;1601777;73;767;-72
2021/10/22 00:50:02;;;;;;;;;;;23.70;48.70;;;;;;1602118;73;744;-72
2021/10/22 00:52:04;;;;;;;;;;;23.80;48.70;;;;;;1585334;73;669;-71
2021/10/22 00:54:06;;;;;;;;;;;23.80;48.70;;;;;;1598635;73;764;-71
2021/10/22 00:56:08;;;;;;;;;;;23.70;48.60;;;;;;1595207;73;1192;-73
2021/10/22 00:58:11;;;;;;;;;;;23.70;48.60;;;;;;1612686;73;794;-72
2021/10/22 01:00:13;;;;;;;;;;;23.80;48.60;;;;;;1615292;73;741;-72
2021/10/22 01:02:15;;;;;;;;;;;23.70;48.60;;;;;;1607633;73;1941;-74
2021/10/22 01:04:17;;;;;;;;;;;23.70;48.70;;;;;;1597867;73;738;-72
2021/10/22 01:06:19;;;;;;;;;;;23.70;48.70;;;;;;1598551;73;1134;-71
2021/10/22 01:08:20;;;;;;;;;;;23.70;48.70;;;;;;1590424;73;742;-71
2021/10/22 01:10:22;;;;;;;;;;;23.70;48.60;;;;;;1587659;73;720;-70
2021/10/22 01:12:24;;;;;;;;;;;23.70;48.60;;;;;;1610423;73;772;-72
2021/10/22 01:14:26;;;;;;;;;;;23.70;48.60;;;;;;1596201;73;774;-70
2021/10/22 01:16:28;;;;;;;;;;;23.70;48.70;;;;;;1591285;73;1229;-70
2021/10/22 01:18:31;;;;;;;;;;;23.70;48.70;;;;;;1611046;73;784;-71
2021/10/22 01:20:34;;;;;;;;;;;23.70;48.80;;;;;;1584860;73;828;-70
2021/10/22 01:22:37;;;;;;;;;;;23.80;48.80;;;;;;1590778;73;1959;-70
2021/10/22 01:24:39;;;;;;;;;;;23.70;48.80;;;;;;1597668;73;777;-70
2021/10/22 01:26:41;;;;;;;;;;;23.70;48.80;;;;;;1592411;73;1191;-70
2021/10/22 01:28:43;;;;;;;;;;;23.70;48.80;;;;;;1586747;73;746;-71
2021/10/22 01:30:44;;;;;;;;;;;23.80;48.80;;;;;;1583990;73;765;-71
2021/10/22 01:32:46;;;;;;;;;;;23.70;48.80;;;;;;1609135;73;803;-72
2021/10/22 01:34:48;;;;;;;;;;;23.70;48.70;;;;;;1576785;74;723;-70
2021/10/22 01:36:50;;;;;;;;;;;23.80;48.70;;;;;;1592581;73;1188;-70
2021/10/22 01:38:52;;;;;;;;;;;23.80;48.70;;;;;;1580787;73;729;-70
2021/10/22 01:40:55;;;;;;;;;;;23.80;48.60;;;;;;1613020;73;766;-70
2021/10/22 01:42:57;;;;;;;;;;;23.80;48.70;;;;;;1576714;73;1916;-71
2021/10/22 01:44:59;;;;;;;;;;;23.70;48.70;;;;;;1582921;73;761;-71
2021/10/22 01:47:01;;;;;;;;;;;23.80;48.70;;;;;;1606059;73;1134;-70
2021/10/22 01:49:03;;;;;;;;;;;23.70;48.60;;;;;;1591901;73;817;-69
2021/10/22 01:51:05;;;;;;;;;;;23.70;48.60;;;;;;1597269;73;699;-69
2021/10/22 01:53:08;;;;;;;;;;;23.90;48.70;;;;;;1574422;73;659;-70
2021/10/22 01:55:10;;;;;;;;;;;23.70;48.70;;;;;;1584085;73;825;-71
2021/10/22 01:57:12;;;;;;;;;;;23.70;48.70;;;;;;1596132;73;1119;-72
2021/10/22 01:59:14;;;;;;;;;;;23.70;48.60;;;;;;1589708;73;685;-71
2021/10/22 02:01:16;;;;;;;;;;;23.80;48.70;;;;;;1567188;73;831;-71
2021/10/22 02:03:18;;;;;;;;;;;23.80;48.70;;;;;;1585499;74;1922;-71
2021/10/22 02:05:19;;;;;;;;;;;23.90;48.80;;;;;;1576026;74;750;-71
2021/10/22 02:07:21;;;;;;;;;;;23.70;48.70;;;;;;1549829;75;227182;-56
2021/10/22 02:09:23;;;;;;;;;;;23.80;48.70;;;;;;1556472;75;705;-57
2021/10/22 02:11:25;;;;;;;;;;;23.70;48.70;;;;;;1557048;75;672;-57
2021/10/22 02:13:29;;;;;;;;;;;23.90;48.80;;;;;;1553752;76;739;-56
2021/10/22 02:15:31;;;;;;;;;;;23.70;48.60;;;;;;1555051;75;1221;-58
2021/10/22 02:17:32;;;;;;;;;;;23.70;48.60;;;;;;1539934;75;797;-55
2021/10/22 02:19:34;;;;;;;;;;;23.70;48.60;;;;;;1531705;75;733;-56
2021/10/22 02:21:36;;;;;;;;;;;23.70;48.60;;;;;;1552605;76;703;-55
2021/10/22 02:23:38;;;;;;;;;;;23.70;48.70;;;;;;1551356;75;1924;-56
2021/10/22 02:25:40;;;;;;;;;;;23.80;48.60;;;;;;1534350;75;1200;-56
2021/10/22 02:27:42;;;;;;;;;;;23.70;48.70;;;;;;1545727;75;702;-56
2021/10/22 02:29:44;;;;;;;;;;;23.90;48.70;;;;;;1544058;75;717;-56
2021/10/22 02:31:46;;;;;;;;;;;23.80;48.70;;;;;;1526701;75;722;-56
2021/10/22 02:33:48;;;;;;;;;;;23.80;48.70;;;;;;1540022;76;786;-56
2021/10/22 02:35:50;;;;;;;;;;;23.90;48.80;;;;;;1534992;75;1114;-57
2021/10/22 02:37:52;;;;;;;;;;;23.80;48.60;;;;;;1529424;75;702;-56
2021/10/22 02:39:53;;;;;;;;;;;23.80;48.60;;;;;;1534514;76;758;-56
2021/10/22 02:41:55;;;;;;;;;;;23.90;48.70;;;;;;1540217;76;705;-56
2021/10/22 02:43:57;;;;;;;;;;;23.90;48.70;;;;;;1534946;76;1935;-56
2021/10/22 02:45:59;;;;;;;;;;;23.90;48.60;;;;;;1529214;76;1103;-56
2021/10/22 02:48:01;;;;;;;;;;;23.80;48.60;;;;;;1542195;75;729;-56
2021/10/22 02:50:03;;;;;;;;;;;23.90;48.70;;;;;;1550098;76;786;-56
2021/10/22 02:52:05;;;;;;;;;;;23.80;48.60;;;;;;1548520;75;717;-56
2021/10/22 02:54:07;;;;;;;;;;;23.90;48.60;;;;;;1540942;75;712;-56
2021/10/22 02:56:09;;;;;;;;;;;23.90;48.60;;;;;;1546900;76;1163;-57
2021/10/22 02:58:11;;;;;;;;;;;23.90;48.50;;;;;;1551122;76;641;-57
2021/10/22 03:00:13;;;;;;;;;;;23.90;48.40;;;;;;1548043;76;639;-56
2021/10/22 03:02:15;;;;;;;;;;;23.90;48.40;;;;;;1543881;76;742;-56
2021/10/22 03:04:16;;;;;;;;;;;23.90;48.40;;;;;;1549832;76;1939;-56
2021/10/22 03:06:19;;;;;;;;;;;24.00;48.20;;;;;;1550433;76;1533;-57
2021/10/22 03:08:21;;;;;;;;;;;23.90;48.20;;;;;;1539770;75;789;-57
2021/10/22 03:10:23;;;;;;;;;;;23.90;48.30;;;;;;1545355;75;808;-57
2021/10/22 03:12:25;;;;;;;;;;;23.90;48.30;;;;;;1542735;76;665;-57
2021/10/22 03:14:27;;;;;;;;;;;23.90;48.20;;;;;;1548655;76;1155;-57
2021/10/22 03:16:29;;;;;;;;;;;24.00;48.10;;;;;;1548504;76;811;-57
2021/10/22 03:18:31;;;;;;;;;;;24.00;48.10;;;;;;1542718;76;731;-57
2021/10/22 03:20:32;;;;;;;;;;;23.90;48.10;;;;;;1543642;75;748;-57
2021/10/22 03:22:35;;;;;;;;;;;23.90;48.10;;;;;;1537204;75;646;-57
2021/10/22 03:24:36;;;;;;;;;;;23.90;48.00;;;;;;1551337;76;1927;-55
2021/10/22 03:26:38;;;;;;;;;;;23.90;48.00;;;;;;1547913;75;729;-55
2021/10/22 03:28:40;;;;;;;;;;;24.00;48.00;;;;;;1543590;75;691;-56
2021/10/22 03:30:43;;;;;;;;;;;24.00;48.00;;;;;;1540163;76;683;-55
2021/10/22 03:32:45;;;;;;;;;;;24.00;48.00;;;;;;1552415;76;725;-55
2021/10/22 03:34:46;;;;;;;;;;;24.00;47.90;;;;;;1533406;75;1151;-55
2021/10/22 03:36:48;;;;;;;;;;;23.90;47.90;;;;;;1552607;75;660;-55
2021/10/22 03:38:50;;;;;;;;;;;23.90;47.90;;;;;;1543955;76;719;-53
2021/10/22 03:40:52;;;;;;;;;;;23.90;47.90;;;;;;1547065;76;779;-53
2021/10/22 03:42:54;;;;;;;;;;;23.90;48.00;;;;;;1551331;76;780;-55
2021/10/22 03:44:56;;;;;;;;;;;23.90;48.00;;;;;;1546450;76;1915;-56
2021/10/22 03:46:58;;;;;;;;;;;23.90;47.90;;;;;;1552599;76;720;-55
2021/10/22 03:49:00;;;;;;;;;;;23.90;48.00;;;;;;1547079;76;782;-56
2021/10/22 03:51:02;;;;;;;;;;;24.00;48.00;;;;;;1552071;76;741;-55
2021/10/22 03:53:04;;;;;;;;;;;23.90;48.00;;;;;;1546895;76;697;-56
2021/10/22 03:55:06;;;;;;;;;;;23.90;48.00;;;;;;1550810;76;1202;-56
2021/10/22 03:57:08;;;;;;;;;;;23.90;47.90;;;;;;1547267;76;722;-55
2021/10/22 03:59:09;;;;;;;;;;;23.90;47.90;;;;;;1547294;76;885;-54
2021/10/22 04:01:11;;;;;;;;;;;23.90;47.90;;;;;;1548577;76;732;-56
2021/10/22 04:03:14;;;;;;;;;;;23.90;47.90;;;;;;1545808;76;1939;-55
2021/10/22 04:05:16;;;;;;;;;;;23.90;47.90;;;;;;1538340;76;1202;-54
2021/10/22 04:07:18;;;;;;;;;;;23.90;47.90;;;;;;1542982;76;895;-55
2021/10/22 04:09:20;;;;;;;;;;;23.90;47.90;;;;;;1542399;76;752;-55
2021/10/22 04:11:22;;;;;;;;;;;23.90;47.90;;;;;;1544577;76;781;-55
2021/10/22 04:13:24;;;;;;;;;;;23.90;47.90;;;;;;1547180;76;732;-56
2021/10/22 04:15:26;;;;;;;;;;;23.90;47.90;;;;;;1547345;76;1163;-55
2021/10/22 04:17:28;;;;;;;;;;;23.90;47.90;;;;;;1548221;76;805;-56
2021/10/22 04:19:29;;;;;;;;;;;23.90;47.90;;;;;;1546379;75;725;-56
2021/10/22 04:21:31;;;;;;;;;;;23.90;48.00;;;;;;1543210;76;888;-55
2021/10/22 04:23:33;;;;;;;;;;;23.90;48.00;;;;;;1549423;76;1946;-54
2021/10/22 04:25:35;;;;;;;;;;;23.80;48.10;;;;;;1549340;76;1170;-54
2021/10/22 04:27:37;;;;;;;;;;;23.90;48.00;;;;;;1551762;76;697;-57
2021/10/22 04:29:39;;;;;;;;;;;23.90;47.90;;;;;;1547275;76;741;-56
2021/10/22 04:31:41;;;;;;;;;;;23.90;47.90;;;;;;1552168;76;669;-53
2021/10/22 04:33:43;;;;;;;;;;;23.90;47.80;;;;;;1544061;76;743;-54
2021/10/22 04:35:44;;;;;;;;;;;23.90;47.80;;;;;;1546372;76;1127;-53
2021/10/22 04:42:13;;;;;;;;;;;23.90;47.80;;;;;;1548793;76;1657;-56
2021/10/22 04:44:15;;;;;;;;;;;23.90;47.90;;;;;;1551811;76;1941;-55
2021/10/22 04:46:18;;;;;;;;;;;23.90;47.90;;;;;;1541260;76;1164;-54
2021/10/22 04:48:20;;;;;;;;;;;23.80;47.90;;;;;;1548785;76;799;-54
2021/10/22 04:50:22;;;;;;;;;;;23.90;47.90;;;;;;1551529;76;787;-55
2021/10/22 04:52:23;;;;;;;;;;;23.80;47.80;;;;;;1542636;75;710;-56
2021/10/22 04:54:25;;;;;;;;;;;23.80;47.80;;;;;;1542216;75;1146;-55
2021/10/22 04:56:27;;;;;;;;;;;23.80;47.70;;;;;;1538732;76;670;-53
2021/10/22 04:58:29;;;;;;;;;;;23.90;47.80;;;;;;1528028;76;694;-54
2021/10/22 05:00:31;;;;;;;;;;;23.80;47.80;;;;;;1527702;76;835;-53
2021/10/22 05:02:34;;;;;;;;;;;23.80;47.70;;;;;;1533029;76;737;-56
2021/10/22 05:04:36;;;;;;;;;;;23.90;47.90;;;;;;1533630;76;1962;-56
2021/10/22 05:06:38;;;;;;;;;;;23.90;47.90;;;;;;1529622;75;710;-55
2021/10/22 05:08:40;;;;;;;;;;;23.80;47.80;;;;;;1533619;76;809;-55
2021/10/22 05:10:42;;;;;;;;;;;23.80;47.90;;;;;;1534787;76;890;-55
2021/10/22 05:12:44;;;;;;;;;;;23.90;48.10;;;;;;1539839;76;727;-57
2021/10/22 05:14:46;;;;;;;;;;;23.90;48.00;;;;;;1541683;76;1162;-56
2021/10/22 05:16:47;;;;;;;;;;;23.90;47.90;;;;;;1544608;75;740;-53
2021/10/22 05:18:49;;;;;;;;;;;23.90;47.90;;;;;;1530052;76;722;-56
2021/10/22 05:20:51;;;;;;;;;;;23.90;47.90;;;;;;1539930;75;783;-56
2021/10/22 05:22:53;;;;;;;;;;;23.90;47.80;;;;;;1528169;75;697;-57
2021/10/22 05:24:55;;;;;;;;;;;23.90;47.80;;;;;;1526809;75;1936;-56
2021/10/22 05:26:57;;;;;;;;;;;23.90;47.80;;;;;;1531178;75;785;-56
2021/10/22 05:28:59;;;;;;;;;;;23.90;47.80;;;;;;1536348;76;819;-55
2021/10/22 05:31:01;;;;;;;;;;;23.90;47.70;;;;;;1547980;75;814;-56
2021/10/22 05:33:03;;;;;;;;;;;23.90;47.70;;;;;;1533420;75;701;-58
2021/10/22 05:35:05;;;;;;;;;;;24.00;47.70;;;;;;1550365;76;1118;-57
2021/10/22 05:37:06;;;;;;;;;;;24.00;47.70;;;;;;1541922;76;796;-56
2021/10/22 05:39:08;;;;;;;;;;;24.00;47.80;;;;;;1552202;75;718;-56
2021/10/22 05:41:10;;;;;;;;;;;23.90;47.80;;;;;;1552252;76;698;-55
2021/10/22 05:43:12;;;;;;;;;;;24.00;47.80;;;;;;1551696;76;679;-56
2021/10/22 05:45:14;;;;;;;;;;;23.90;47.80;;;;;;1551423;76;1939;-55
2021/10/22 05:47:16;;;;;;;;;;;24.00;47.80;;;;;;1537327;76;787;-56
2021/10/22 05:49:18;;;;;;;;;;;23.90;47.70;;;;;;1551305;76;664;-55
2021/10/22 05:51:20;;;;;;;;;;;23.90;47.60;;;;;;1550647;75;710;-56
2021/10/22 05:53:22;;;;;;;;;;;24.00;47.10;;;;;;1545263;76;715;-55
2021/10/22 05:55:24;;;;;;;;;;;23.90;46.70;;;;;;1547755;75;1096;-55
2021/10/22 05:57:26;;;;;;;;;;;23.90;46.60;;;;;;1539380;75;702;-55
2021/10/22 05:59:28;;;;;;;;;;;23.80;46.50;;;;;;1552085;76;769;-55
2021/10/22 06:01:30;;;;;;;;;;;23.80;46.60;;;;;;1539531;75;687;-55
2021/10/22 06:03:31;;;;;;;;;;;23.80;46.60;;;;;;1550938;76;704;-56
2021/10/22 06:05:33;;;;;;;;;;;23.80;46.60;;;;;;1538373;75;1938;-55
2021/10/22 06:07:35;;;;;;;;;;;23.70;46.60;;;;;;1551845;76;725;-55
2021/10/22 06:09:37;;;;;;;;;;;23.80;46.60;;;;;;1543494;76;1345;-56
2021/10/22 06:11:39;;;;;;;;;;;23.70;46.60;;;;;;1546820;76;754;-56
2021/10/22 06:13:41;;;;;;;;;;;23.80;46.60;;;;;;1549443;76;686;-56
2021/10/22 06:15:43;;;;;;;;;;;23.70;46.60;;;;;;1547156;76;1152;-56
2021/10/22 06:17:45;;;;;;;;;;;23.70;46.60;;;;;;1551564;76;681;-56
2021/10/22 06:19:47;;;;;;;;;;;23.70;46.60;;;;;;1549014;75;763;-56
2021/10/22 06:22:09;;;;;;;;;;;23.70;46.60;;;;;;1546295;76;683;-56
2021/10/22 06:24:02;;;;;;;;;;;23.70;46.60;;;;;;1539742;76;1948;-56
2021/10/22 06:26:04;;;;;;;;;;;23.70;46.60;;;;;;1542034;76;1178;-56
2021/10/22 06:28:06;;;;;;;;;;;23.70;46.60;;;;;;1535748;75;713;-55
2021/10/22 06:30:08;;;;;;;;;;;23.60;46.50;;;;;;1551903;76;667;-56
2021/10/22 06:32:10;;;;;;;;;;;23.70;46.60;;;;;;1546116;76;808;-57
2021/10/22 06:34:12;;;;;;;;;;;23.70;46.50;;;;;;1551556;76;907;-55
2021/10/22 06:36:14;;;;;;;;;;;23.70;46.60;;;;;;1544181;76;1075;-55
2021/10/22 06:38:16;;;;;;;;;;;23.60;46.40;;;;;;1548959;76;790;-56
2021/10/22 06:40:18;;;;;;;;;;;23.70;46.50;;;;;;1548475;76;668;-55
2021/10/22 06:42:20;;;;;;;;;;;23.60;46.40;;;;;;1549843;76;720;-55
2021/10/22 06:44:25;;;;;;;;;;;23.60;46.40;;;;;;1550215;76;1951;-56
2021/10/22 06:46:25;;;;;;;;;;;23.60;46.40;;;;;;1548939;76;1657;-55
2021/10/22 06:48:27;;;;;;;;;;;23.60;46.40;;;;;;1528265;75;731;-57
2021/10/22 06:50:29;;;;;;;;;;;23.60;46.40;;;;;;1512459;77;696;-56
2021/10/22 06:52:31;;;;;;;;;;;23.60;46.50;;;;;;1551168;75;757;-57
2021/10/22 06:54:32;;;;;;;;;;;23.60;46.60;;;;;;1535594;75;1143;-57
2021/10/22 06:56:34;;;;;;;;;;;23.60;46.80;;;;;;1548191;75;772;-57
2021/10/22 06:58:36;;;;;;;;;;;23.60;47.00;;;;;;1536136;76;763;-56
2021/10/22 07:00:38;;;;;;;;;;;23.60;47.10;;;;;;1546918;76;701;-56
2021/10/22 07:02:47;;;;;;;;;;;23.70;47.30;;;;;;1541808;76;770;-55
2021/10/22 07:04:51;;;;;;;;;;;23.60;47.30;;;;;;1552422;76;1931;-56
2021/10/22 07:09:12;;;;;;;;;;;23.70;47.50;;;;;;1552017;76;1655;-57
2021/10/22 07:11:16;;;;;;;;;;;23.60;47.40;;;;;;1551327;76;801;-56
2021/10/22 07:13:18;;;;;;;;;;;23.60;47.40;;;;;;1539061;75;705;-56
2021/10/22 07:15:20;;;;;;;;;;;23.60;47.50;;;;;;1551880;75;1157;-58
2021/10/22 07:17:22;;;;;;;;;;;23.70;47.70;;;;;;1552749;75;732;-58
2021/10/22 07:19:24;;;;;;;;;;;23.70;47.60;;;;;;1546998;75;676;-58
2021/10/22 07:21:26;;;;;;;;;;;23.70;47.60;;;;;;1530536;75;684;-56
2021/10/22 07:23:33;;;;;;;;;;;23.70;47.70;;;;;;1548009;75;790;-57
2021/10/22 07:25:32;;;;;;;;;;;23.70;47.60;;;;;;1533564;76;1924;-55
2021/10/22 07:27:35;;;;;;;;;;;23.70;47.60;;;;;;1552608;76;756;-55
2021/10/22 07:29:37;;;;;;;;;;;23.70;47.70;;;;;;1549756;76;753;-56
2021/10/22 07:31:39;;;;;;;;;;;23.70;47.70;;;;;;1552053;76;685;-55
2021/10/22 07:33:42;;;;;;;;;;;23.60;47.60;;;;;;1552476;75;808;-55
2021/10/22 07:35:44;;;;;;;;;;;23.70;47.70;;;;;;1552623;75;1151;-54
2021/10/22 07:37:46;;;;;;;;;;;23.70;47.60;;;;;;1551153;75;764;-55
2021/10/22 07:39:48;;;;;;;;;;;23.70;47.20;;;;;;1532831;75;753;-56
2021/10/22 07:41:50;;;;;;;;;;;23.70;46.80;;;;;;1540395;76;709;-54
2021/10/22 07:43:52;;;;;;;;;;;23.60;46.10;;;;;;1549534;76;722;-56
2021/10/22 07:45:53;;;;;;;;;;;23.60;45.70;;;;;;1543347;76;1954;-55
2021/10/22 07:47:55;;;;;;;;;;;23.70;45.40;;;;;;1532065;76;735;-56
2021/10/22 07:49:57;;;;;;;;;;;23.50;44.90;;;;;;1547102;75;665;-56
2021/10/22 07:51:59;;;;;;;;;;;23.50;44.60;;;;;;1537284;75;738;-56
2021/10/22 07:54:01;;;;;;;;;;;23.50;44.40;;;;;;1552242;75;644;-55
2021/10/22 07:56:03;;;;;;;;;;;23.50;44.20;;;;;;1542339;76;1103;-55
2021/10/22 07:58:05;;;;;;;;;;;23.50;43.90;;;;;;1547520;76;765;-55
2021/10/22 08:00:08;;;;;;;;;;;23.40;43.60;;;;;;1552104;75;808;-56
2021/10/22 08:02:13;;;;;;;;;;;23.30;43.50;;;;;;1535108;75;729;-56
2021/10/22 08:04:15;;;;;;;;;;;23.30;43.30;;;;;;1554859;76;742;-56
2021/10/22 08:06:17;;;;;;;;;;;23.30;43.30;;;;;;1541947;75;1957;-55
2021/10/22 08:08:19;;;;;;;;;;;23.30;43.20;;;;;;1600698;73;220774;-72
2021/10/22 08:10:23;;;;;;;;;;;23.20;43.00;;;;;;1595445;73;810;-71
2021/10/22 08:12:25;;;;;;;;;;;23.30;42.90;;;;;;1599046;72;682;-69
2021/10/22 08:14:27;;;;;;;;;;;23.20;42.80;;;;;;1592640;73;859;-70
2021/10/22 08:16:29;;;;;;;;;;;23.20;42.80;;;;;;1602441;73;1199;-68
2021/10/22 08:18:30;;;;;;;;;;;23.10;42.70;;;;;;1574729;74;971;-69
2021/10/22 08:20:34;;;;;;;;;;;23.10;42.80;;;;;;1578387;74;749;-69
2021/10/22 08:22:37;;;;;;;;;;;23.10;42.70;;;;;;1569147;74;738;-70
2021/10/22 08:24:39;;;;;;;;;;;23.10;42.70;;;;;;1576447;74;796;-70
2021/10/22 08:26:40;;;;;;;;;;;23.10;42.60;;;;;;1588941;74;1162;-71
2021/10/22 08:28:43;;;;;;;;;;;23.10;42.60;;;;;;1587502;74;650;-70
2021/10/22 08:30:46;;;;;;;;;;;23.10;42.60;;;;;;1584372;75;751;-65
2021/10/22 08:32:51;;;;;;;;;;;23.10;42.50;;;;;;1590379;74;543;-70
2021/10/22 08:34:53;;;;;;;;;;;23.20;42.50;;;;;;1584325;74;930;-70
2021/10/22 08:36:55;;;;;;;;;;;23.10;42.40;;;;;;1589626;74;1176;-69
2021/10/22 08:38:57;;;;;;;;;;;23.00;42.30;;;;;;1584627;74;684;-69
2021/10/22 08:40:59;;;;;;;;;;;23.10;42.30;;;;;;1589216;74;781;-71
2021/10/22 08:43:01;;;;;;;;;;;23.00;42.30;;;;;;1564103;76;742;-72
2021/10/22 08:45:04;;;;;;;;;;;23.00;42.20;;;;;;1550282;76;1906;-72
2021/10/22 08:47:06;;;;;;;;;;;23.00;42.20;;;;;;1587769;74;1151;-69
2021/10/22 08:49:16;;;;;;;;;;;23.00;42.20;;;;;;1580128;74;765;-69
2021/10/22 08:51:18;;;;;;;;;;;23.00;42.20;;;;;;1573211;74;1624;-72
2021/10/22 08:53:18;;;;;;;;;;;22.90;42.10;;;;;;1538376;76;1678;-70
2021/10/22 08:55:20;;;;;;;;;;;22.90;42.10;;;;;;1591726;74;754;-67
2021/10/22 08:57:22;;;;;;;;;;;23.00;42.00;;;;;;1574334;74;1134;-68
2021/10/22 08:59:24;;;;;;;;;;;23.00;41.90;;;;;;1587492;74;798;-69
2021/10/22 09:01:26;;;;;;;;;;;22.90;41.90;;;;;;1578583;74;727;-69
2021/10/22 09:03:30;;;;;;;;;;;22.90;41.80;;;;;;1569333;74;814;-68
2021/10/22 09:05:31;;;;;;;;;;;22.90;42.00;;;;;;1569448;74;1916;-68
2021/10/22 09:07:43;;;;;;;;;;;22.90;41.80;;;;;;1569733;74;1145;-65
2021/10/22 09:09:47;;;;;;;;;;;22.90;41.90;;;;;;1566309;74;752;-69
2021/10/22 09:11:49;;;;;;;;;;;23.00;41.90;;;;;;1569041;74;1011;-70
2021/10/22 09:14:02;;;;;;;;;;;22.90;41.90;;;;;;1571608;74;806;-71
2021/10/22 09:16:09;;;;;;;;;;;22.90;42.00;;;;;;1581450;74;705;-69
2021/10/22 09:18:17;;;;;;;;;;;22.90;42.10;;;;;;1585909;74;1111;-69
2021/10/22 09:20:19;;;;;;;;;;;23.00;42.20;;;;;;1567779;74;744;-69
2021/10/22 09:22:25;;;;;;;;;;;23.00;42.10;;;;;;1589863;74;816;-69
2021/10/22 09:24:28;;;;;;;;;;;22.90;42.10;;;;;;1585163;74;852;-70
2021/10/22 09:26:30;;;;;;;;;;;23.00;42.20;;;;;;1589962;73;1938;-69
2021/10/22 09:28:32;;;;;;;;;;;23.00;42.10;;;;;;1586406;74;787;-69
2021/10/22 09:30:41;;;;;;;;;;;23.00;42.10;;;;;;1575949;74;784;-70
2021/10/22 09:32:44;;;;;;;;;;;23.00;42.20;;;;;;1586539;74;1604;-69
2021/10/22 09:34:45;;;;;;;;;;;23.00;42.30;;;;;;1553859;76;1705;-69
2021/10/22 09:36:49;;;;;;;;;;;23.00;42.30;;;;;;1550142;75;1175;-67
2021/10/22 09:38:51;;;;;;;;;;;23.00;42.30;;;;;;1547008;75;685;-70
2021/10/22 09:40:57;;;;;;;;;;;23.00;42.30;;;;;;1531670;77;1196;-71
2021/10/22 09:42:58;;;;;;;;;;;23.00;42.20;;;;;;1550031;76;695;-70
2021/10/22 09:45:00;;;;;;;;;;;23.00;42.30;;;;;;1541708;77;1238;-69
2021/10/22 09:47:07;;;;;;;;;;;23.10;42.30;;;;;;1550205;75;1948;-69
2021/10/22 09:49:09;;;;;;;;;;;23.00;41.90;;;;;;1542152;75;756;-67
2021/10/22 09:51:24;;;;;;;;;;;23.00;42.00;;;;;;1548529;76;678;-72
2021/10/22 09:53:27;;;;;;;;;;;23.10;41.90;;;;;;1532464;76;741;-69
2021/10/22 09:55:29;;;;;;;;;;;23.00;41.80;;;;;;1537869;75;778;-71
2021/10/22 09:57:31;;;;;;;;;;;23.00;42.00;;;;;;1564428;74;1150;-69
2021/10/22 09:59:33;;;;;;;;;;;23.00;41.90;;;;;;1565395;74;744;-69
2021/10/22 10:01:39;;;;;;;;;;;23.00;42.00;;;;;;1565886;74;761;-69
2021/10/22 10:03:42;;;;;;;;;;;23.00;42.00;;;;;;1557742;75;622;-72
2021/10/22 10:05:44;;;;;;;;;;;23.00;41.90;;;;;;1561363;75;1909;-68
2021/10/22 10:07:46;;;;;;;;;;;23.00;41.80;;;;;;1558624;75;1192;-69
2021/10/22 10:09:49;;;;;;;;;;;23.00;41.80;;;;;;1558902;75;725;-68
2021/10/22 10:11:53;;;;;;;;;;;23.00;41.60;;;;;;1559972;75;800;-68
2021/10/22 10:13:55;;;;;;;;;;;23.00;41.50;;;;;;1562675;75;1636;-69
2021/10/22 10:15:57;;;;;;;;;;;23.10;41.70;;;;;;1557548;75;794;-69
2021/10/22 10:18:00;;;;;;;;;;;23.10;41.50;;;;;;1561615;75;1192;-69
2021/10/22 10:20:04;;;;;;;;;;;23.10;41.60;;;;;;1558657;75;797;-69
2021/10/22 10:22:07;;;;;;;;;;;23.10;41.70;;;;;;1555613;75;1389;-69
2021/10/22 10:24:10;;;;;;;;;;;23.10;41.90;;;;;;1557052;75;719;-68
2021/10/22 10:26:20;;;;;;;;;;;23.10;42.10;;;;;;1555916;75;1941;-69
2021/10/22 10:28:39;;;;;;;;;;;23.10;42.20;;;;;;1559454;75;2316;-69
2021/10/22 10:30:42;;;;;;;;;;;23.10;42.40;;;;;;1560991;75;1561;-69
2021/10/22 10:32:44;;;;;;;;;;;23.00;42.70;;;;;;1564491;75;727;-69
2021/10/22 10:34:46;;;;;;;;;;;23.00;43.40;;;;;;1565966;75;777;-70
2021/10/22 10:36:50;;;;;;;;;;;23.10;44.10;;;;;;1571947;75;1078;-69
2021/10/22 10:38:52;;;;;;;;;;;23.10;44.50;;;;;;1553347;75;1065;-69
2021/10/22 10:40:54;;;;;;;;;;;23.10;45.20;;;;;;1560444;75;710;-69
2021/10/22 10:42:56;;;;;;;;;;;23.10;45.40;;;;;;1536249;76;1200;-66
2021/10/22 10:44:58;;;;;;;;;;;23.10;45.60;;;;;;1562300;75;789;-69
2021/10/22 10:47:00;;;;;;;;;;;23.20;45.90;;;;;;1555922;75;1943;-69
2021/10/22 10:49:02;;;;;;;;;;;23.20;46.00;;;;;;1570274;75;775;-69
2021/10/22 10:51:04;;;;;;;;;;;23.20;46.10;;;;;;1577541;75;791;-70
2021/10/22 10:53:07;;;;;;;;;;;23.20;45.90;;;;;;1564191;75;640;-69
2021/10/22 10:55:32;;;;;;;;;;;23.20;45.90;;;;;;1560795;75;758;-69
2021/10/22 10:57:34;;;;;;;;;;;23.20;46.00;;;;;;1578513;75;1165;-69
2021/10/22 10:59:45;;;;;;;;;;;23.30;46.00;;;;;;1562604;75;838;-70
2021/10/22 11:01:49;;;;;;;;;;;23.30;46.00;;;;;;1578279;75;733;-69
2021/10/22 11:03:50;;;;;;;;;;;23.40;45.70;;;;;;1568092;75;1908;-69
2021/10/22 11:05:55;;;;;;;;;;;23.50;45.60;;;;;;1570043;75;1942;-69
2021/10/22 11:07:59;;;;;;;;;;;23.50;45.50;;;;;;1579597;75;1144;-68
2021/10/22 11:10:02;;;;;;;;;;;23.70;45.30;;;;;;1556264;75;1115;-70
2021/10/22 11:12:04;;;;;;;;;;;23.70;45.10;;;;;;1544369;75;933;-68
2021/10/22 11:14:08;;;;;;;;;;;23.70;44.90;;;;;;1542691;75;687;-71
2021/10/22 11:16:10;;;;;;;;;;;23.90;44.70;;;;;;1550305;75;717;-70
2021/10/22 11:18:12;;;;;;;;;;;24.00;44.40;;;;;;1558724;75;1112;-70
2021/10/22 11:20:14;;;;;;;;;;;24.10;44.30;;;;;;1562766;75;793;-70
2021/10/22 11:22:23;;;;;;;;;;;24.10;44.20;;;;;;1536151;75;987;-70
2021/10/22 11:24:22;;;;;;;;;;;24.00;44.00;;;;;;1563031;75;1600;-69
2021/10/22 11:26:23;;;;;;;;;;;24.10;44.10;;;;;;1549236;75;1903;-70
2021/10/22 11:28:31;;;;;;;;;;;24.10;44.10;;;;;;1565191;75;1134;-70
2021/10/22 11:30:33;;;;;;;;;;;24.10;44.00;;;;;;1560095;75;751;-70
2021/10/22 11:32:35;;;;;;;;;;;24.20;44.00;;;;;;1552145;75;711;-69
2021/10/22 11:34:38;;;;;;;;;;;24.30;44.10;;;;;;1563339;75;786;-68
2021/10/22 11:36:41;;;;;;;;;;;24.20;43.90;;;;;;1564078;75;1138;-67
2021/10/22 11:38:43;;;;;;;;;;;24.30;43.90;;;;;;1567261;75;709;-68
2021/10/22 11:40:45;;;;;;;;;;;24.40;43.90;;;;;;1563964;75;685;-66
2021/10/22 11:42:47;;;;;;;;;;;24.40;43.90;;;;;;1563977;75;835;-67
2021/10/22 11:44:51;;;;;;;;;;;24.30;43.90;;;;;;1552487;75;722;-68
2021/10/22 11:46:52;;;;;;;;;;;24.40;43.90;;;;;;1551999;75;1915;-68
2021/10/22 11:48:54;;;;;;;;;;;24.40;43.80;;;;;;1546670;75;1314;-69
2021/10/22 11:50:57;;;;;;;;;;;24.40;43.90;;;;;;1554171;74;758;-69
2021/10/22 11:53:05;;;;;;;;;;;24.30;43.90;;;;;;1557965;75;842;-68
2021/10/22 11:55:04;;;;;;;;;;;24.20;43.90;;;;;;1556587;75;1623;-70
2021/10/22 11:57:10;;;;;;;;;;;24.10;44.10;;;;;;1557973;75;1204;-69
2021/10/22 11:59:13;;;;;;;;;;;24.00;44.10;;;;;;1551473;75;1843;-68
2021/10/22 12:01:14;;;;;;;;;;;24.00;44.20;;;;;;1549926;75;749;-68
2021/10/22 12:03:18;;;;;;;;;;;24.00;44.20;;;;;;1547121;75;727;-68
2021/10/22 12:05:20;;;;;;;;;;;24.00;44.20;;;;;;1548427;75;1822;-68
2021/10/22 12:07:22;;;;;;;;;;;24.00;44.10;;;;;;1549449;75;1913;-69
2021/10/22 12:09:25;;;;;;;;;;;23.90;44.10;;;;;;1555909;75;842;-69
2021/10/22 12:11:29;;;;;;;;;;;23.90;44.10;;;;;;1553962;75;1473;-67
2021/10/22 12:13:33;;;;;;;;;;;23.90;44.20;;;;;;1554189;75;750;-68
2021/10/22 12:15:35;;;;;;;;;;;23.90;44.20;;;;;;1543442;75;742;-68
2021/10/22 12:17:37;;;;;;;;;;;23.90;44.20;;;;;;1554784;75;1112;-69